sensor_id;sensor_type;location;lat;lon;timestamp;pressure;altitude;pressure_sealevel;temperature;humidity
1371;BME280;14306;49.942;11.570;2022-08-05T00:00:14;97221.28;;;23.47;46.97
1371;BME280;14306;49.942;11.570;2022-08-05T00:02:42;97229.59;;;23.44;47.19
1371;BME280;14306;49.942;11.570;2022-08-05T00:05:17;97224.44;;;23.42;47.25
1371;BME280;14306;49.942;11.570;2022-08-05T00:08:05;97222.03;;;23.37;47.32
1371;BME280;14306;49.942;11.570;2022-08-05T00:10:56;97218.50;;;23.40;47.59
1371;BME280;14306;49.942;11.570;2022-08-05T00:13:27;97217.31;;;23.34;47.79
1371;BME280;14306;49.942;11.570;2022-08-05T00:16:06;97213.69;;;23.20;48.20
1371;BME280;14306;49.942;11.570;2022-08-05T00:18:34;97213.25;;;23.14;47.67
1371;BME280;14306;49.942;11.570;2022-08-05T00:21:03;97212.47;;;23.10;47.97
1371;BME280;14306;49.942;11.570;2022-08-05T00:23:33;97210.88;;;23.13;47.50
1371;BME280;14306;49.942;11.570;2022-08-05T00:26:20;97206.53;;;23.08;47.39
1371;BME280;14306;49.942;11.570;2022-08-05T00:28:49;97204.19;;;23.14;47.15
1371;BME280;14306;49.942;11.570;2022-08-05T00:31:17;97200.25;;;23.18;47.17
1371;BME280;14306;49.942;11.570;2022-08-05T00:34:05;97208.22;;;23.23;47.23
1371;BME280;14306;49.942;11.570;2022-08-05T00:36:53;97195.88;;;23.07;47.37
1371;BME280;14306;49.942;11.570;2022-08-05T00:39:40;97202.97;;;23.08;47.39
1371;BME280;14306;49.942;11.570;2022-08-05T00:42:32;97200.19;;;22.97;47.65
1371;BME280;14306;49.942;11.570;2022-08-05T00:45:00;97200.19;;;22.97;47.54
1371;BME280;14306;49.942;11.570;2022-08-05T00:47:28;97198.59;;;22.93;47.55
1371;BME280;14306;49.942;11.570;2022-08-05T00:50:16;97206.41;;;22.77;48.16
1371;BME280;14306;49.942;11.570;2022-08-05T00:52:46;97204.44;;;22.77;48.21
1371;BME280;14306;49.942;11.570;2022-08-05T00:55:14;97200.09;;;22.73;48.37
1371;BME280;14306;49.942;11.570;2022-08-05T00:57:45;97202.81;;;22.66;48.60
1371;BME280;14306;49.942;11.570;2022-08-05T01:00:25;97206.72;;;22.54;49.01
1371;BME280;14306;49.942;11.570;2022-08-05T01:02:53;97203.44;;;22.45;49.23
1371;BME280;14306;49.942;11.570;2022-08-05T01:05:21;97201.81;;;22.33;49.52
1371;BME280;14306;49.942;11.570;2022-08-05T01:07:53;97201.38;;;22.28;49.74
1371;BME280;14306;49.942;11.570;2022-08-05T01:10:45;97199.03;;;22.30;49.83
1371;BME280;14306;49.942;11.570;2022-08-05T01:13:26;97190.78;;;22.33;49.82
1371;BME280;14306;49.942;11.570;2022-08-05T01:16:23;97197.88;;;22.31;50.52
1371;BME280;14306;49.942;11.570;2022-08-05T01:18:57;97191.53;;;22.27;50.12
1371;BME280;14306;49.942;11.570;2022-08-05T01:21:51;97192.94;;;22.07;50.94
1371;BME280;14306;49.942;11.570;2022-08-05T01:24:55;97179.88;;;21.97;51.59
1371;BME280;14306;49.942;11.570;2022-08-05T01:33:01;97183.09;;;22.02;51.34
1371;BME280;14306;49.942;11.570;2022-08-05T01:35:37;97182.34;;;22.12;50.99
1371;BME280;14306;49.942;11.570;2022-08-05T01:38:19;97185.91;;;22.16;51.07
1371;BME280;14306;49.942;11.570;2022-08-05T01:40:54;97187.03;;;22.05;51.74
1371;BME280;14306;49.942;11.570;2022-08-05T01:43:26;97191.38;;;22.02;51.84
1371;BME280;14306;49.942;11.570;2022-08-05T01:45:56;97182.72;;;22.11;50.88
1371;BME280;14306;49.942;11.570;2022-08-05T01:48:43;97181.97;;;22.10;50.98
1371;BME280;14306;49.942;11.570;2022-08-05T01:51:16;97179.16;;;22.03;51.30
1371;BME280;14306;49.942;11.570;2022-08-05T01:53:47;97183.84;;;21.99;52.08
1371;BME280;14306;49.942;11.570;2022-08-05T01:56:27;97185.53;;;22.18;50.57
1371;BME280;14306;49.942;11.570;2022-08-05T01:59:17;97181.25;;;22.27;49.83
1371;BME280;14306;49.942;11.570;2022-08-05T02:01:51;97186.34;;;22.18;50.21
1371;BME280;14306;49.942;11.570;2022-08-05T02:04:25;97179.16;;;22.07;50.52
1371;BME280;14306;49.942;11.570;2022-08-05T02:06:56;97184.66;;;22.07;50.84
1371;BME280;14306;49.942;11.570;2022-08-05T02:09:29;97183.41;;;21.97;50.81
1371;BME280;14306;49.942;11.570;2022-08-05T02:12:03;97181.91;;;22.03;50.82
1371;BME280;14306;49.942;11.570;2022-08-05T02:14:39;97184.72;;;22.14;50.58
1371;BME280;14306;49.942;11.570;2022-08-05T02:17:18;97183.16;;;22.16;50.47
1371;BME280;14306;49.942;11.570;2022-08-05T02:20:13;97187.09;;;22.15;50.51
1371;BME280;14306;49.942;11.570;2022-08-05T02:22:54;97187.91;;;22.19;50.29
1371;BME280;14306;49.942;11.570;2022-08-05T02:25:25;97187.97;;;22.23;50.08
1371;BME280;14306;49.942;11.570;2022-08-05T02:28:02;97186.41;;;22.29;50.06
1371;BME280;14306;49.942;11.570;2022-08-05T02:30:37;97186.00;;;22.27;50.16
1371;BME280;14306;49.942;11.570;2022-08-05T02:33:22;97187.91;;;22.19;50.37
1371;BME280;14306;49.942;11.570;2022-08-05T02:36:05;97190.72;;;22.26;50.28
1371;BME280;14306;49.942;11.570;2022-08-05T02:38:40;97185.16;;;22.19;50.43
1371;BME280;14306;49.942;11.570;2022-08-05T02:41:20;97185.50;;;22.11;50.92
1371;BME280;14306;49.942;11.570;2022-08-05T02:43:54;97179.09;;;22.00;51.39
1371;BME280;14306;49.942;11.570;2022-08-05T02:46:32;97179.91;;;22.00;51.58
1371;BME280;14306;49.942;11.570;2022-08-05T02:49:02;97178.41;;;22.10;51.40
1371;BME280;14306;49.942;11.570;2022-08-05T02:51:37;97171.66;;;22.04;51.53
1371;BME280;14306;49.942;11.570;2022-08-05T02:54:26;97170.78;;;21.93;51.84
1371;BME280;14306;49.942;11.570;2022-08-05T02:59:52;97158.13;;;21.85;51.74
1371;BME280;14306;49.942;11.570;2022-08-05T03:02:25;97157.75;;;21.90;52.02
1371;BME280;14306;49.942;11.570;2022-08-05T03:04:56;97162.03;;;21.80;52.08
1371;BME280;14306;49.942;11.570;2022-08-05T03:07:26;97161.97;;;21.77;52.61
1371;BME280;14306;49.942;11.570;2022-08-05T03:10:15;97160.03;;;21.77;53.63
1371;BME280;14306;49.942;11.570;2022-08-05T03:12:50;97160.41;;;21.76;54.38
1371;BME280;14306;49.942;11.570;2022-08-05T03:15:19;97168.22;;;21.70;54.12
1371;BME280;14306;49.942;11.570;2022-08-05T03:17:50;97170.19;;;21.70;54.42
1371;BME280;14306;49.942;11.570;2022-08-05T03:20:22;97170.94;;;21.67;54.79
1371;BME280;14306;49.942;11.570;2022-08-05T03:22:51;97167.75;;;21.65;54.19
1371;BME280;14306;49.942;11.570;2022-08-05T03:25:23;97161.47;;;21.64;53.92
1371;BME280;14306;49.942;11.570;2022-08-05T03:28:15;97165.44;;;21.70;53.70
1371;BME280;14306;49.942;11.570;2022-08-05T03:30:46;97162.69;;;21.70;53.75
1371;BME280;14306;49.942;11.570;2022-08-05T03:33:16;97158.34;;;21.69;53.53
1371;BME280;14306;49.942;11.570;2022-08-05T03:35:47;97161.91;;;21.70;53.51
1371;BME280;14306;49.942;11.570;2022-08-05T03:38:17;97151.81;;;21.88;52.94
1371;BME280;14306;49.942;11.570;2022-08-05T03:40:59;97146.72;;;21.90;52.74
1371;BME280;14306;49.942;11.570;2022-08-05T03:43:34;97142.91;;;22.08;52.13
1371;BME280;14306;49.942;11.570;2022-08-05T03:46:22;97139.84;;;22.24;51.79
1371;BME280;14306;49.942;11.570;2022-08-05T03:48:56;97143.16;;;22.50;51.15
1371;BME280;14306;49.942;11.570;2022-08-05T03:51:31;97139.25;;;22.58;50.82
1371;BME280;14306;49.942;11.570;2022-08-05T03:54:29;97143.19;;;22.58;50.97
1371;BME280;14306;49.942;11.570;2022-08-05T03:57:22;97143.59;;;22.52;50.96
1371;BME280;14306;49.942;11.570;2022-08-05T04:00:10;97142.41;;;22.50;50.96
1371;BME280;14306;49.942;11.570;2022-08-05T04:02:43;97142.81;;;22.59;50.78
1371;BME280;14306;49.942;11.570;2022-08-05T04:05:25;97161.03;;;22.78;50.72
1371;BME280;14306;49.942;11.570;2022-08-05T04:08:01;97201.53;;;23.45;50.06
1371;BME280;14306;49.942;11.570;2022-08-05T04:10:41;97171.94;;;24.19;47.28
1371;BME280;14306;49.942;11.570;2022-08-05T04:13:10;97212.59;;;24.68;46.92
1371;BME280;14306;49.942;11.570;2022-08-05T04:15:39;97185.47;;;25.14;44.38
1371;BME280;14306;49.942;11.570;2022-08-05T04:18:27;97175.41;;;25.48;43.99
1371;BME280;14306;49.942;11.570;2022-08-05T04:20:56;97192.84;;;25.45;43.55
1371;BME280;14306;49.942;11.570;2022-08-05T04:23:27;97188.66;;;25.77;43.83
1371;BME280;14306;49.942;11.570;2022-08-05T04:26:16;97184.00;;;26.56;42.16
1371;BME280;14306;49.942;11.570;2022-08-05T04:28:44;97185.41;;;27.38;40.69
1371;BME280;14306;49.942;11.570;2022-08-05T04:31:17;97186.81;;;28.02;39.36
1371;BME280;14306;49.942;11.570;2022-08-05T04:33:46;97204.84;;;27.94;38.92
1371;BME280;14306;49.942;11.570;2022-08-05T04:36:34;97218.63;;;27.18;40.46
1371;BME280;14306;49.942;11.570;2022-08-05T04:39:16;97207.13;;;27.76;39.59
1371;BME280;14306;49.942;11.570;2022-08-05T04:41:45;97216.38;;;27.96;39.40
1371;BME280;14306;49.942;11.570;2022-08-05T04:44:16;97209.56;;;28.01;38.82
1371;BME280;14306;49.942;11.570;2022-08-05T04:46:56;97214.13;;;28.11;39.18
1371;BME280;14306;49.942;11.570;2022-08-05T04:49:25;97229.28;;;28.10;39.07
1371;BME280;14306;49.942;11.570;2022-08-05T04:52:13;97210.53;;;27.87;39.84
1371;BME280;14306;49.942;11.570;2022-08-05T04:54:43;97220.19;;;28.94;37.87
1371;BME280;14306;49.942;11.570;2022-08-05T04:57:10;97214.06;;;29.94;36.82
1371;BME280;14306;49.942;11.570;2022-08-05T04:59:39;97222.38;;;31.06;34.60
1371;BME280;14306;49.942;11.570;2022-08-05T05:02:07;97218.50;;;31.69;33.43
1371;BME280;14306;49.942;11.570;2022-08-05T05:04:55;97219.09;;;31.89;32.90
1371;BME280;14306;49.942;11.570;2022-08-05T05:07:28;97219.25;;;32.58;32.09
1371;BME280;14306;49.942;11.570;2022-08-05T05:09:59;97209.97;;;32.95;30.85
1371;BME280;14306;49.942;11.570;2022-08-05T05:12:30;97209.75;;;32.42;31.29
1371;BME280;14306;49.942;11.570;2022-08-05T05:14:58;97217.28;;;31.70;32.52
1371;BME280;14306;49.942;11.570;2022-08-05T05:17:35;97210.84;;;31.32;32.81
1371;BME280;14306;49.942;11.570;2022-08-05T05:20:23;97201.66;;;30.59;34.41
1371;BME280;14306;49.942;11.570;2022-08-05T05:22:54;97208.34;;;30.17;35.84
1371;BME280;14306;49.942;11.570;2022-08-05T05:25:24;97208.63;;;31.11;35.11
1371;BME280;14306;49.942;11.570;2022-08-05T05:28:05;97202.50;;;32.07;33.20
1371;BME280;14306;49.942;11.570;2022-08-05T05:30:34;97217.00;;;33.64;30.92
1371;BME280;14306;49.942;11.570;2022-08-05T05:33:04;97219.00;;;35.36;28.88
1371;BME280;14306;49.942;11.570;2022-08-05T05:35:43;97226.47;;;36.73;27.17
1371;BME280;14306;49.942;11.570;2022-08-05T05:38:13;97219.31;;;37.24;25.53
1371;BME280;14306;49.942;11.570;2022-08-05T05:40:54;97236.63;;;37.99;25.13
1371;BME280;14306;49.942;11.570;2022-08-05T05:43:23;97231.22;;;39.25;23.52
1371;BME280;14306;49.942;11.570;2022-08-05T05:46:11;97238.50;;;39.51;22.92
1371;BME280;14306;49.942;11.570;2022-08-05T05:48:45;97244.75;;;38.06;24.75
1371;BME280;14306;49.942;11.570;2022-08-05T05:51:19;97249.47;;;37.56;24.95
1371;BME280;14306;49.942;11.570;2022-08-05T05:53:47;97251.44;;;39.12;23.99
1371;BME280;14306;49.942;11.570;2022-08-05T05:56:26;97263.91;;;38.31;24.42
1371;BME280;14306;49.942;11.570;2022-08-05T05:58:59;97264.34;;;36.57;26.53
1371;BME280;14306;49.942;11.570;2022-08-05T06:01:29;97267.28;;;38.15;24.81
1371;BME280;14306;49.942;11.570;2022-08-05T06:04:05;97283.56;;;39.04;23.34
1371;BME280;14306;49.942;11.570;2022-08-05T06:06:38;97284.63;;;38.72;23.90
1371;BME280;14306;49.942;11.570;2022-08-05T06:09:08;97293.53;;;40.72;21.67
1371;BME280;14306;49.942;11.570;2022-08-05T06:11:52;97298.22;;;38.82;24.16
1371;BME280;14306;49.942;11.570;2022-08-05T06:14:25;97310.72;;;38.12;24.79
1371;BME280;14306;49.942;11.570;2022-08-05T06:16:54;97311.59;;;36.06;27.93
1371;BME280;14306;49.942;11.570;2022-08-05T06:19:23;97305.41;;;35.21;29.06
1371;BME280;14306;49.942;11.570;2022-08-05T06:22:00;97310.34;;;34.41;29.48
1371;BME280;14306;49.942;11.570;2022-08-05T06:24:28;97324.31;;;32.82;31.55
1371;BME280;14306;49.942;11.570;2022-08-05T06:26:58;97328.34;;;32.05;33.08
1371;BME280;14306;49.942;11.570;2022-08-05T06:29:26;97342.13;;;32.00;32.88
1371;BME280;14306;49.942;11.570;2022-08-05T06:32:14;97344.03;;;31.33;34.21
1371;BME280;14306;49.942;11.570;2022-08-05T06:34:52;97333.81;;;30.15;35.14
1371;BME280;14306;49.942;11.570;2022-08-05T06:37:23;97341.72;;;29.81;35.79
1371;BME280;14306;49.942;11.570;2022-08-05T06:40:11;97339.31;;;29.01;37.56
1371;BME280;14306;49.942;11.570;2022-08-05T06:42:48;97339.97;;;29.48;36.78
1371;BME280;14306;49.942;11.570;2022-08-05T06:45:19;97337.28;;;29.83;36.05
1371;BME280;14306;49.942;11.570;2022-08-05T06:48:07;97331.03;;;30.11;36.24
1371;BME280;14306;49.942;11.570;2022-08-05T06:50:56;97342.66;;;30.45;35.43
1371;BME280;14306;49.942;11.570;2022-08-05T06:53:26;97348.47;;;30.54;35.52
1371;BME280;14306;49.942;11.570;2022-08-05T06:55:55;97339.69;;;31.73;33.45
1371;BME280;14306;49.942;11.570;2022-08-05T06:58:26;97340.00;;;33.38;30.90
1371;BME280;14306;49.942;11.570;2022-08-05T07:01:03;97339.00;;;36.24;27.51
1371;BME280;14306;49.942;11.570;2022-08-05T07:03:32;97348.78;;;35.59;27.89
1371;BME280;14306;49.942;11.570;2022-08-05T07:06:00;97347.59;;;37.03;25.49
1371;BME280;14306;49.942;11.570;2022-08-05T07:08:40;97361.34;;;37.81;25.11
1371;BME280;14306;49.942;11.570;2022-08-05T07:11:14;97370.94;;;37.98;24.70
1371;BME280;14306;49.942;11.570;2022-08-05T07:13:49;97374.97;;;39.13;23.53
1371;BME280;14306;49.942;11.570;2022-08-05T07:16:55;97390.22;;;39.56;22.88
1371;BME280;14306;49.942;11.570;2022-08-05T07:19:46;97392.16;;;39.64;22.81
1371;BME280;14306;49.942;11.570;2022-08-05T07:22:35;97394.72;;;37.91;25.18
1371;BME280;14306;49.942;11.570;2022-08-05T07:25:04;97394.22;;;37.78;25.58
1371;BME280;14306;49.942;11.570;2022-08-05T07:27:53;97400.31;;;34.23;29.94
1371;BME280;14306;49.942;11.570;2022-08-05T07:30:33;97399.91;;;35.04;29.34
1371;BME280;14306;49.942;11.570;2022-08-05T07:33:07;97392.66;;;35.51;29.21
1371;BME280;14306;49.942;11.570;2022-08-05T07:35:43;97386.41;;;37.03;26.71
1371;BME280;14306;49.942;11.570;2022-08-05T07:38:32;97395.06;;;38.66;25.28
1371;BME280;14306;49.942;11.570;2022-08-05T07:41:11;97402.28;;;38.82;25.25
1371;BME280;14306;49.942;11.570;2022-08-05T07:44:00;97410.91;;;39.22;24.72
1371;BME280;14306;49.942;11.570;2022-08-05T07:46:31;97416.00;;;39.18;24.90
1371;BME280;14306;49.942;11.570;2022-08-05T07:49:01;97416.91;;;40.55;23.93
1371;BME280;14306;49.942;11.570;2022-08-05T07:51:35;97417.16;;;40.26;24.12
1371;BME280;14306;49.942;11.570;2022-08-05T07:54:07;97414.81;;;40.50;23.87
1371;BME280;14306;49.942;11.570;2022-08-05T07:56:37;97417.38;;;42.11;21.45
1371;BME280;14306;49.942;11.570;2022-08-05T07:59:25;97416.06;;;42.01;22.19
1371;BME280;14306;49.942;11.570;2022-08-05T08:02:08;97420.09;;;42.86;21.13
1371;BME280;14306;49.942;11.570;2022-08-05T08:04:46;97418.63;;;43.86;20.27
1371;BME280;14306;49.942;11.570;2022-08-05T08:07:15;97416.81;;;43.83;20.28
1371;BME280;14306;49.942;11.570;2022-08-05T08:09:49;97420.84;;;41.19;22.41
1371;BME280;14306;49.942;11.570;2022-08-05T08:12:19;97417.00;;;42.73;21.33
1371;BME280;14306;49.942;11.570;2022-08-05T08:15:06;97425.00;;;42.96;21.01
1371;BME280;14306;49.942;11.570;2022-08-05T08:17:43;97429.34;;;43.63;20.01
1371;BME280;14306;49.942;11.570;2022-08-05T08:20:19;97429.41;;;44.09;19.80
1371;BME280;14306;49.942;11.570;2022-08-05T08:23:08;97416.88;;;41.06;23.00
1371;BME280;14306;49.942;11.570;2022-08-05T08:25:56;97421.53;;;39.61;24.25
1371;BME280;14306;49.942;11.570;2022-08-05T08:28:27;97421.34;;;41.18;22.13
1371;BME280;14306;49.942;11.570;2022-08-05T08:31:03;97426.25;;;40.30;23.28
1371;BME280;14306;49.942;11.570;2022-08-05T08:33:32;97420.31;;;39.48;24.40
1371;BME280;14306;49.942;11.570;2022-08-05T08:36:04;97421.03;;;40.03;23.25
1371;BME280;14306;49.942;11.570;2022-08-05T08:38:53;97420.59;;;41.71;22.43
1371;BME280;14306;49.942;11.570;2022-08-05T08:41:25;97427.34;;;42.76;20.32
1371;BME280;14306;49.942;11.570;2022-08-05T08:44:14;97434.16;;;41.92;21.13
1371;BME280;14306;49.942;11.570;2022-08-05T08:47:05;97427.84;;;43.46;20.29
1371;BME280;14306;49.942;11.570;2022-08-05T08:49:56;97428.16;;;42.93;20.74
1371;BME280;14306;49.942;11.570;2022-08-05T08:52:49;97433.81;;;39.93;23.09
1371;BME280;14306;49.942;11.570;2022-08-05T08:55:19;97427.66;;;43.05;20.45
1371;BME280;14306;49.942;11.570;2022-08-05T08:58:08;97434.38;;;44.49;18.85
1371;BME280;14306;49.942;11.570;2022-08-05T09:00:41;97428.97;;;41.85;20.71
1371;BME280;14306;49.942;11.570;2022-08-05T09:03:10;97430.16;;;38.83;24.47
1371;BME280;14306;49.942;11.570;2022-08-05T09:05:47;97434.94;;;36.92;26.36
1371;BME280;14306;49.942;11.570;2022-08-05T09:08:35;97436.84;;;35.54;28.46
1371;BME280;14306;49.942;11.570;2022-08-05T09:11:06;97438.22;;;37.00;27.36
1371;BME280;14306;49.942;11.570;2022-08-05T09:13:40;97445.88;;;37.64;26.13
1371;BME280;14306;49.942;11.570;2022-08-05T09:16:29;97445.31;;;38.66;25.24
1371;BME280;14306;49.942;11.570;2022-08-05T09:18:57;97450.03;;;41.56;22.45
1371;BME280;14306;49.942;11.570;2022-08-05T09:21:26;97450.38;;;42.39;20.58
1371;BME280;14306;49.942;11.570;2022-08-05T09:24:15;97451.00;;;41.90;21.05
1371;BME280;14306;49.942;11.570;2022-08-05T09:26:46;97454.84;;;40.72;22.33
1371;BME280;14306;49.942;11.570;2022-08-05T09:29:17;97454.06;;;39.11;24.26
1371;BME280;14306;49.942;11.570;2022-08-05T09:32:05;97449.06;;;39.55;23.63
1371;BME280;14306;49.942;11.570;2022-08-05T09:34:54;97461.19;;;39.56;23.59
1371;BME280;14306;49.942;11.570;2022-08-05T09:37:29;97453.44;;;39.76;23.26
1371;BME280;14306;49.942;11.570;2022-08-05T09:40:31;97457.66;;;40.46;22.96
1371;BME280;14306;49.942;11.570;2022-08-05T09:43:02;97445.66;;;40.37;23.20
1371;BME280;14306;49.942;11.570;2022-08-05T09:45:35;97440.28;;;40.95;22.31
1371;BME280;14306;49.942;11.570;2022-08-05T09:48:25;97447.19;;;44.37;19.30
1371;BME280;14306;49.942;11.570;2022-08-05T09:50:56;97449.91;;;45.78;17.79
1371;BME280;14306;49.942;11.570;2022-08-05T09:53:28;97443.94;;;45.76;17.85
1371;BME280;14306;49.942;11.570;2022-08-05T09:56:23;97440.88;;;47.42;15.67
1371;BME280;14306;49.942;11.570;2022-08-05T09:58:56;97437.59;;;45.83;17.35
1371;BME280;14306;49.942;11.570;2022-08-05T10:01:26;97438.25;;;41.80;21.38
1371;BME280;14306;49.942;11.570;2022-08-05T10:04:00;97431.91;;;40.81;22.03
1371;BME280;14306;49.942;11.570;2022-08-05T10:06:36;97421.75;;;41.95;20.96
1371;BME280;14306;49.942;11.570;2022-08-05T10:09:17;97424.97;;;41.24;21.26
1371;BME280;14306;49.942;11.570;2022-08-05T10:11:54;97417.72;;;42.57;20.30
1371;BME280;14306;49.942;11.570;2022-08-05T10:14:25;97409.19;;;42.46;20.51
1371;BME280;14306;49.942;11.570;2022-08-05T10:17:12;97405.22;;;44.57;18.37
1371;BME280;14306;49.942;11.570;2022-08-05T10:20:01;97407.94;;;47.30;16.29
1371;BME280;14306;49.942;11.570;2022-08-05T10:22:38;97402.97;;;47.83;15.95
1371;BME280;14306;49.942;11.570;2022-08-05T10:25:15;97403.94;;;46.07;16.95
1371;BME280;14306;49.942;11.570;2022-08-05T10:27:45;97401.91;;;46.58;16.74
1371;BME280;14306;49.942;11.570;2022-08-05T10:30:35;97400.00;;;44.55;17.22
1371;BME280;14306;49.942;11.570;2022-08-05T10:33:25;97402.69;;;45.60;16.91
1371;BME280;14306;49.942;11.570;2022-08-05T10:35:55;97402.22;;;43.92;17.34
1371;BME280;14306;49.942;11.570;2022-08-05T10:38:27;97404.88;;;43.73;18.14
1371;BME280;14306;49.942;11.570;2022-08-05T10:41:07;97403.13;;;43.59;18.09
1371;BME280;14306;49.942;11.570;2022-08-05T10:43:48;97404.53;;;42.76;18.79
1371;BME280;14306;49.942;11.570;2022-08-05T10:46:20;97391.88;;;44.29;17.21
1371;BME280;14306;49.942;11.570;2022-08-05T10:48:54;97398.38;;;43.84;17.80
1371;BME280;14306;49.942;11.570;2022-08-05T10:51:41;97394.16;;;42.40;19.03
1371;BME280;14306;49.942;11.570;2022-08-05T10:54:24;97400.59;;;41.54;20.02
1371;BME280;14306;49.942;11.570;2022-08-05T10:57:27;97391.56;;;42.53;18.26
1371;BME280;14306;49.942;11.570;2022-08-05T11:00:11;97405.81;;;40.57;19.95
1371;BME280;14306;49.942;11.570;2022-08-05T11:03:11;97404.78;;;40.85;20.77
1371;BME280;14306;49.942;11.570;2022-08-05T11:06:07;97391.59;;;42.64;18.91
1371;BME280;14306;49.942;11.570;2022-08-05T11:09:11;97388.91;;;44.81;16.97
1371;BME280;14306;49.942;11.570;2022-08-05T11:11:43;97378.16;;;45.17;16.97
1371;BME280;14306;49.942;11.570;2022-08-05T11:14:26;97381.19;;;43.95;17.49
1371;BME280;14306;49.942;11.570;2022-08-05T11:17:27;97382.84;;;44.20;17.02
1371;BME280;14306;49.942;11.570;2022-08-05T11:20:43;97384.34;;;43.80;17.53
1371;BME280;14306;49.942;11.570;2022-08-05T11:23:28;97379.09;;;42.39;18.45
1371;BME280;14306;49.942;11.570;2022-08-05T11:26:21;97394.47;;;41.24;19.45
1371;BME280;14306;49.942;11.570;2022-08-05T11:28:58;97392.31;;;42.37;18.85
1371;BME280;14306;49.942;11.570;2022-08-05T11:31:41;97395.16;;;43.19;17.25
1371;BME280;14306;49.942;11.570;2022-08-05T11:34:38;97389.41;;;43.47;17.53
1371;BME280;14306;49.942;11.570;2022-08-05T11:41:12;97398.63;;;40.92;19.79
1371;BME280;14306;49.942;11.570;2022-08-05T11:44:02;97395.72;;;39.59;21.21
1371;BME280;14306;49.942;11.570;2022-08-05T11:46:35;97395.13;;;40.46;20.10
1371;BME280;14306;49.942;11.570;2022-08-05T11:49:25;97396.66;;;39.96;20.71
1371;BME280;14306;49.942;11.570;2022-08-05T11:51:54;97400.69;;;40.10;20.66
1371;BME280;14306;49.942;11.570;2022-08-05T11:54:24;97394.03;;;41.96;19.55
1371;BME280;14306;49.942;11.570;2022-08-05T11:57:04;97400.47;;;41.85;19.41
1371;BME280;14306;49.942;11.570;2022-08-05T11:59:51;97395.25;;;41.30;19.78
1371;BME280;14306;49.942;11.570;2022-08-05T12:02:24;97398.16;;;39.32;21.58
1371;BME280;14306;49.942;11.570;2022-08-05T12:05:00;97391.13;;;39.27;21.50
1371;BME280;14306;49.942;11.570;2022-08-05T12:07:35;97383.63;;;39.64;20.68
1371;BME280;14306;49.942;11.570;2022-08-05T12:10:25;97377.59;;;39.37;21.23
1371;BME280;14306;49.942;11.570;2022-08-05T12:13:12;97379.31;;;38.80;21.70
1371;BME280;14306;49.942;11.570;2022-08-05T12:15:53;97393.13;;;38.14;22.42
1371;BME280;14306;49.942;11.570;2022-08-05T12:18:26;97392.44;;;38.19;22.63
1371;BME280;14306;49.942;11.570;2022-08-05T12:21:10;97394.09;;;39.18;22.85
1371;BME280;14306;49.942;11.570;2022-08-05T12:23:38;97390.38;;;38.92;22.78
1371;BME280;14306;49.942;11.570;2022-08-05T12:26:08;97389.41;;;39.15;22.08
1371;BME280;14306;49.942;11.570;2022-08-05T12:28:36;97402.59;;;39.18;22.01
1371;BME280;14306;49.942;11.570;2022-08-05T12:31:05;97401.38;;;38.03;22.96
1371;BME280;14306;49.942;11.570;2022-08-05T12:33:34;97384.63;;;38.72;22.45
1371;BME280;14306;49.942;11.570;2022-08-05T12:36:05;97394.56;;;38.97;21.84
1371;BME280;14306;49.942;11.570;2022-08-05T12:38:37;97390.59;;;38.59;22.64
1371;BME280;14306;49.942;11.570;2022-08-05T12:41:08;97385.31;;;38.52;22.83
1371;BME280;14306;49.942;11.570;2022-08-05T12:43:53;97390.06;;;38.03;23.07
1371;BME280;14306;49.942;11.570;2022-08-05T12:46:23;97385.81;;;37.46;23.97
1371;BME280;14306;49.942;11.570;2022-08-05T12:48:58;97381.00;;;37.37;24.03
1371;BME280;14306;49.942;11.570;2022-08-05T12:51:45;97374.84;;;36.92;24.49
1371;BME280;14306;49.942;11.570;2022-08-05T12:54:35;97386.31;;;36.88;24.46
1371;BME280;14306;49.942;11.570;2022-08-05T12:57:05;97380.72;;;36.20;24.97
1371;BME280;14306;49.942;11.570;2022-08-05T12:59:43;97376.69;;;35.48;25.70
1371;BME280;14306;49.942;11.570;2022-08-05T13:02:34;97373.84;;;35.48;25.98
1371;BME280;14306;49.942;11.570;2022-08-05T13:05:06;97377.72;;;35.24;26.34
1371;BME280;14306;49.942;11.570;2022-08-05T13:07:41;97383.88;;;35.31;26.60
1371;BME280;14306;49.942;11.570;2022-08-05T13:10:30;97380.75;;;35.38;25.84
1371;BME280;14306;49.942;11.570;2022-08-05T13:12:58;97375.91;;;35.30;26.35
1371;BME280;14306;49.942;11.570;2022-08-05T13:15:29;97372.59;;;35.22;26.60
1371;BME280;14306;49.942;11.570;2022-08-05T13:18:07;97373.19;;;35.17;26.49
1371;BME280;14306;49.942;11.570;2022-08-05T13:20:36;97365.72;;;34.75;26.88
1371;BME280;14306;49.942;11.570;2022-08-05T13:23:06;97362.94;;;34.93;27.37
1371;BME280;14306;49.942;11.570;2022-08-05T13:25:35;97369.22;;;34.97;27.42
1371;BME280;14306;49.942;11.570;2022-08-05T13:28:24;97364.72;;;35.17;27.08
1371;BME280;14306;49.942;11.570;2022-08-05T13:30:52;97362.66;;;34.91;26.95
1371;BME280;14306;49.942;11.570;2022-08-05T13:33:22;97360.53;;;34.73;26.70
1371;BME280;14306;49.942;11.570;2022-08-05T13:36:10;97364.59;;;34.33;27.57
1371;BME280;14306;49.942;11.570;2022-08-05T13:38:40;97355.94;;;34.58;27.30
1371;BME280;14306;49.942;11.570;2022-08-05T13:41:18;97359.53;;;34.58;27.36
1371;BME280;14306;49.942;11.570;2022-08-05T13:43:51;97353.34;;;34.72;27.44
1371;BME280;14306;49.942;11.570;2022-08-05T13:46:20;97351.28;;;34.64;27.29
1371;BME280;14306;49.942;11.570;2022-08-05T13:49:08;97349.00;;;34.80;27.61
1371;BME280;14306;49.942;11.570;2022-08-05T13:51:38;97341.13;;;34.75;26.86
1371;BME280;14306;49.942;11.570;2022-08-05T13:54:13;97337.38;;;34.78;27.32
1371;BME280;14306;49.942;11.570;2022-08-05T13:56:44;97341.97;;;34.85;27.29
1371;BME280;14306;49.942;11.570;2022-08-05T13:59:18;97343.91;;;35.06;26.82
1371;BME280;14306;49.942;11.570;2022-08-05T14:01:52;97334.66;;;34.96;27.18
1371;BME280;14306;49.942;11.570;2022-08-05T14:04:25;97340.06;;;34.82;27.01
1371;BME280;14306;49.942;11.570;2022-08-05T14:07:17;97337.72;;;34.80;27.30